sensor_id;sensor_type;location;lat;lon;timestamp;pressure;altitude;pressure_sealevel;temperature;humidity
77452;BME280;66537;52.370;4.832;2023-06-19T00:00:42;100722.06;;;23.46;50.33
77452;BME280;66537;52.370;4.832;2023-06-19T00:03:07;100732.63;;;23.46;50.78
77452;BME280;66537;52.370;4.832;2023-06-19T00:05:33;100741.81;;;23.42;50.94
77452;BME280;66537;52.370;4.832;2023-06-19T00:07:58;100728.31;;;23.45;50.64
77452;BME280;66537;52.370;4.832;2023-06-19T00:10:24;100737.47;;;23.41;50.42
77452;BME280;66537;52.370;4.832;2023-06-19T00:12:49;100738.75;;;23.47;50.45
77452;BME280;66537;52.370;4.832;2023-06-19T00:15:16;100738.19;;;23.43;50.26
77452;BME280;66537;52.370;4.832;2023-06-19T00:17:41;100732.31;;;23.40;50.35
77452;BME280;66537;52.370;4.832;2023-06-19T00:20:07;100747.34;;;23.28;50.61
77452;BME280;66537;52.370;4.832;2023-06-19T00:22:33;100748.22;;;23.17;50.74
77452;BME280;66537;52.370;4.832;2023-06-19T00:24:58;100747.59;;;23.25;50.96
77452;BME280;66537;52.370;4.832;2023-06-19T00:27:24;100756.81;;;23.30;50.93
77452;BME280;66537;52.370;4.832;2023-06-19T00:29:51;100762.97;;;23.20;51.15
77452;BME280;66537;52.370;4.832;2023-06-19T00:32:16;100750.78;;;23.08;52.21
77452;BME280;66537;52.370;4.832;2023-06-19T00:34:42;100761.00;;;23.01;52.39
77452;BME280;66537;52.370;4.832;2023-06-19T00:37:08;100752.06;;;22.82;53.25
77452;BME280;66537;52.370;4.832;2023-06-19T00:39:34;100745.59;;;22.86;53.25
77452;BME280;66537;52.370;4.832;2023-06-19T00:42:00;100737.06;;;22.82;54.08
77452;BME280;66537;52.370;4.832;2023-06-19T00:44:25;100751.97;;;22.72;54.73
77452;BME280;66537;52.370;4.832;2023-06-19T00:46:56;100750.63;;;22.67;55.56
77452;BME280;66537;52.370;4.832;2023-06-19T00:49:22;100755.31;;;22.52;56.47
77452;BME280;66537;52.370;4.832;2023-06-19T00:51:47;100759.50;;;22.43;57.29
77452;BME280;66537;52.370;4.832;2023-06-19T00:54:13;100752.69;;;22.41;57.19
77452;BME280;66537;52.370;4.832;2023-06-19T00:56:39;100757.34;;;22.26;58.49
77452;BME280;66537;52.370;4.832;2023-06-19T00:59:15;100749.72;;;22.23;58.55
77452;BME280;66537;52.370;4.832;2023-06-19T01:01:42;100763.22;;;22.19;59.13
77452;BME280;66537;52.370;4.832;2023-06-19T01:04:07;100759.03;;;22.16;59.33
77452;BME280;66537;52.370;4.832;2023-06-19T01:06:43;100761.78;;;22.04;60.82
77452;BME280;66537;52.370;4.832;2023-06-19T01:09:11;100767.06;;;21.93;61.88
77452;BME280;66537;52.370;4.832;2023-06-19T01:11:44;100766.50;;;21.66;63.48
77452;BME280;66537;52.370;4.832;2023-06-19T01:14:44;100773.28;;;21.57;64.38
77452;BME280;66537;52.370;4.832;2023-06-19T01:17:13;100777.91;;;21.42;65.17
77452;BME280;66537;52.370;4.832;2023-06-19T01:19:39;100784.22;;;21.40;65.31
77452;BME280;66537;52.370;4.832;2023-06-19T01:22:05;100775.63;;;21.14;66.30
77452;BME280;66537;52.370;4.832;2023-06-19T01:24:30;100777.50;;;21.12;66.94
77452;BME280;66537;52.370;4.832;2023-06-19T01:26:56;100793.66;;;21.08;67.33
77452;BME280;66537;52.370;4.832;2023-06-19T01:29:21;100778.38;;;21.00;68.35
77452;BME280;66537;52.370;4.832;2023-06-19T01:32:10;100782.53;;;20.92;68.56
77452;BME280;66537;52.370;4.832;2023-06-19T01:34:38;100784.00;;;20.83;68.70
77452;BME280;66537;52.370;4.832;2023-06-19T01:37:04;100774.59;;;20.68;69.49
77452;BME280;66537;52.370;4.832;2023-06-19T01:39:31;100782.16;;;20.73;69.70
77452;BME280;66537;52.370;4.832;2023-06-19T01:41:58;100784.25;;;20.67;69.82
77452;BME280;66537;52.370;4.832;2023-06-19T01:44:24;100782.59;;;20.66;70.44
77452;BME280;66537;52.370;4.832;2023-06-19T01:46:50;100779.84;;;20.81;70.01
77452;BME280;66537;52.370;4.832;2023-06-19T01:49:16;100780.16;;;20.76;70.28
77452;BME280;66537;52.370;4.832;2023-06-19T01:51:42;100774.78;;;20.78;70.46
77452;BME280;66537;52.370;4.832;2023-06-19T01:54:07;100781.50;;;20.82;70.11
77452;BME280;66537;52.370;4.832;2023-06-19T01:56:32;100774.22;;;20.85;69.87
77452;BME280;66537;52.370;4.832;2023-06-19T01:58:58;100782.47;;;20.81;70.42
77452;BME280;66537;52.370;4.832;2023-06-19T02:01:23;100774.84;;;20.89;70.05
77452;BME280;66537;52.370;4.832;2023-06-19T02:03:49;100771.16;;;20.91;69.93
77452;BME280;66537;52.370;4.832;2023-06-19T02:06:14;100781.91;;;20.88;70.46
77452;BME280;66537;52.370;4.832;2023-06-19T02:08:39;100777.94;;;20.83;70.89
77452;BME280;66537;52.370;4.832;2023-06-19T02:11:05;100783.19;;;20.83;71.39
77452;BME280;66537;52.370;4.832;2023-06-19T02:13:30;100778.56;;;20.74;72.00
77452;BME280;66537;52.370;4.832;2023-06-19T02:15:55;100770.13;;;20.57;73.16
77452;BME280;66537;52.370;4.832;2023-06-19T02:18:21;100780.50;;;20.59;73.26
77452;BME280;66537;52.370;4.832;2023-06-19T02:20:46;100782.19;;;20.60;73.42
77452;BME280;66537;52.370;4.832;2023-06-19T02:23:11;100784.31;;;20.55;74.70
77452;BME280;66537;52.370;4.832;2023-06-19T02:25:37;100784.84;;;20.47;75.53
77452;BME280;66537;52.370;4.832;2023-06-19T02:28:02;100786.63;;;20.59;74.96
77452;BME280;66537;52.370;4.832;2023-06-19T02:30:28;100781.25;;;20.48;75.85
77452;BME280;66537;52.370;4.832;2023-06-19T02:32:54;100782.84;;;20.51;75.81
77452;BME280;66537;52.370;4.832;2023-06-19T02:35:19;100792.00;;;20.45;75.94
77452;BME280;66537;52.370;4.832;2023-06-19T02:37:44;100789.75;;;20.52;75.65
77452;BME280;66537;52.370;4.832;2023-06-19T02:40:11;100785.91;;;20.45;76.73
77452;BME280;66537;52.370;4.832;2023-06-19T02:42:37;100788.16;;;20.62;75.76
77452;BME280;66537;52.370;4.832;2023-06-19T02:45:02;100788.28;;;20.60;75.75
77452;BME280;66537;52.370;4.832;2023-06-19T02:47:31;100779.13;;;20.66;75.78
77452;BME280;66537;52.370;4.832;2023-06-19T02:50:01;100785.09;;;20.68;75.53
77452;BME280;66537;52.370;4.832;2023-06-19T02:52:27;100792.16;;;20.67;76.03
77452;BME280;66537;52.370;4.832;2023-06-19T02:54:53;100784.81;;;20.60;76.07
77452;BME280;66537;52.370;4.832;2023-06-19T02:57:19;100796.41;;;20.57;76.25
77452;BME280;66537;52.370;4.832;2023-06-19T02:59:44;100794.09;;;20.53;76.59
77452;BME280;66537;52.370;4.832;2023-06-19T03:02:11;100787.06;;;20.53;76.70
77452;BME280;66537;52.370;4.832;2023-06-19T03:04:36;100791.22;;;20.56;76.49
77452;BME280;66537;52.370;4.832;2023-06-19T03:07:02;100794.91;;;20.66;76.27
77452;BME280;66537;52.370;4.832;2023-06-19T03:09:28;100804.91;;;20.48;77.58
77452;BME280;66537;52.370;4.832;2023-06-19T03:11:53;100797.38;;;20.44;79.73
77452;BME280;66537;52.370;4.832;2023-06-19T03:14:19;100800.72;;;20.33;80.47
77452;BME280;66537;52.370;4.832;2023-06-19T03:16:45;100798.84;;;20.35;80.15
77452;BME280;66537;52.370;4.832;2023-06-19T03:19:10;100797.13;;;20.47;79.71
77452;BME280;66537;52.370;4.832;2023-06-19T03:21:35;100800.94;;;20.43;80.61
77452;BME280;66537;52.370;4.832;2023-06-19T03:24:01;100802.31;;;20.36;80.81
77452;BME280;66537;52.370;4.832;2023-06-19T03:26:26;100816.06;;;20.39;81.66
77452;BME280;66537;52.370;4.832;2023-06-19T03:28:51;100815.31;;;20.25;82.36
77452;BME280;66537;52.370;4.832;2023-06-19T03:31:17;100808.19;;;20.27;82.87
77452;BME280;66537;52.370;4.832;2023-06-19T03:33:43;100812.28;;;20.31;83.22
77452;BME280;66537;52.370;4.832;2023-06-19T03:36:08;100813.25;;;20.30;83.14
77452;BME280;66537;52.370;4.832;2023-06-19T03:38:34;100821.75;;;20.33;83.75
77452;BME280;66537;52.370;4.832;2023-06-19T03:41:00;100821.53;;;20.36;84.83
77452;BME280;66537;52.370;4.832;2023-06-19T03:43:25;100840.03;;;20.22;87.21
77452;BME280;66537;52.370;4.832;2023-06-19T03:45:50;100831.59;;;20.05;89.57
77452;BME280;66537;52.370;4.832;2023-06-19T03:48:16;100835.56;;;19.98;89.79
77452;BME280;66537;52.370;4.832;2023-06-19T03:50:42;100854.22;;;19.80;91.72
77452;BME280;66537;52.370;4.832;2023-06-19T03:53:08;100854.78;;;19.59;92.71
77452;BME280;66537;52.370;4.832;2023-06-19T03:55:33;100859.72;;;19.51;94.57
77452;BME280;66537;52.370;4.832;2023-06-19T03:57:58;100860.88;;;19.47;94.53
77452;BME280;66537;52.370;4.832;2023-06-19T04:00:24;100876.09;;;19.28;95.97
77452;BME280;66537;52.370;4.832;2023-06-19T04:02:49;100876.66;;;19.33;96.18
77452;BME280;66537;52.370;4.832;2023-06-19T04:05:15;100880.22;;;19.18;96.25
77452;BME280;66537;52.370;4.832;2023-06-19T04:07:44;100884.28;;;18.95;98.25
77452;BME280;66537;52.370;4.832;2023-06-19T04:10:10;100886.63;;;19.00;100.00
77452;BME280;66537;52.370;4.832;2023-06-19T04:12:37;100887.56;;;18.84;100.00
77452;BME280;66537;52.370;4.832;2023-06-19T04:15:02;100898.22;;;18.81;100.00
77452;BME280;66537;52.370;4.832;2023-06-19T04:17:28;100913.69;;;18.86;100.00
77452;BME280;66537;52.370;4.832;2023-06-19T04:19:53;100911.28;;;18.83;100.00
77452;BME280;66537;52.370;4.832;2023-06-19T04:22:18;100909.66;;;18.80;100.00
77452;BME280;66537;52.370;4.832;2023-06-19T04:24:44;100921.16;;;18.78;100.00
77452;BME280;66537;52.370;4.832;2023-06-19T04:27:09;100924.16;;;18.86;100.00
77452;BME280;66537;52.370;4.832;2023-06-19T04:29:37;100923.25;;;18.87;99.65
77452;BME280;66537;52.370;4.832;2023-06-19T04:32:03;100924.25;;;18.70;99.61
77452;BME280;66537;52.370;4.832;2023-06-19T04:34:36;100926.31;;;18.79;100.00
77452;BME280;66537;52.370;4.832;2023-06-19T04:37:01;100936.16;;;18.76;100.00
77452;BME280;66537;52.370;4.832;2023-06-19T04:39:27;100944.38;;;18.56;100.00
77452;BME280;66537;52.370;4.832;2023-06-19T04:41:52;100947.28;;;18.51;100.00
77452;BME280;66537;52.370;4.832;2023-06-19T04:44:17;100944.91;;;18.47;100.00
77452;BME280;66537;52.370;4.832;2023-06-19T04:46:43;100960.00;;;18.57;100.00
77452;BME280;66537;52.370;4.832;2023-06-19T04:49:12;100952.16;;;18.57;100.00
77452;BME280;66537;52.370;4.832;2023-06-19T04:51:38;100963.00;;;18.65;99.83
77452;BME280;66537;52.370;4.832;2023-06-19T04:54:03;100965.50;;;18.53;98.81
77452;BME280;66537;52.370;4.832;2023-06-19T04:56:29;100973.97;;;18.58;99.59
77452;BME280;66537;52.370;4.832;2023-06-19T04:58:55;100966.50;;;18.66;98.57
77452;BME280;66537;52.370;4.832;2023-06-19T05:01:25;100966.94;;;18.72;98.12
77452;BME280;66537;52.370;4.832;2023-06-19T05:03:54;100985.88;;;18.77;97.18
77452;BME280;66537;52.370;4.832;2023-06-19T05:06:21;100984.84;;;18.66;96.35
77452;BME280;66537;52.370;4.832;2023-06-19T05:08:47;100982.94;;;18.54;96.49
77452;BME280;66537;52.370;4.832;2023-06-19T05:11:12;100983.75;;;18.54;97.13
77452;BME280;66537;52.370;4.832;2023-06-19T05:13:38;100981.22;;;18.53;96.68
77452;BME280;66537;52.370;4.832;2023-06-19T05:16:03;100986.59;;;18.65;95.52
77452;BME280;66537;52.370;4.832;2023-06-19T05:18:29;100984.25;;;18.61;95.50
77452;BME280;66537;52.370;4.832;2023-06-19T05:20:54;100987.06;;;18.58;95.16
77452;BME280;66537;52.370;4.832;2023-06-19T05:23:19;101002.66;;;18.45;94.78
77452;BME280;66537;52.370;4.832;2023-06-19T05:25:45;100998.91;;;18.49;95.79
77452;BME280;66537;52.370;4.832;2023-06-19T05:28:10;101000.91;;;18.60;94.81
77452;BME280;66537;52.370;4.832;2023-06-19T05:30:35;101006.22;;;18.58;94.20
77452;BME280;66537;52.370;4.832;2023-06-19T05:33:01;101020.53;;;18.53;93.11
77452;BME280;66537;52.370;4.832;2023-06-19T05:35:26;101019.72;;;18.52;93.42
77452;BME280;66537;52.370;4.832;2023-06-19T05:37:52;101011.16;;;18.49;93.47
77452;BME280;66537;52.370;4.832;2023-06-19T05:40:17;101023.44;;;18.48;92.27
77452;BME280;66537;52.370;4.832;2023-06-19T05:42:43;101017.34;;;18.48;93.97
77452;BME280;66537;52.370;4.832;2023-06-19T05:45:08;101035.50;;;18.51;92.44
77452;BME280;66537;52.370;4.832;2023-06-19T05:47:34;101028.78;;;18.61;93.23
77452;BME280;66537;52.370;4.832;2023-06-19T05:49:59;101036.00;;;18.57;92.39
77452;BME280;66537;52.370;4.832;2023-06-19T05:52:25;101050.41;;;18.64;91.94
77452;BME280;66537;52.370;4.832;2023-06-19T05:54:51;101042.19;;;18.70;91.23
77452;BME280;66537;52.370;4.832;2023-06-19T05:57:17;101051.56;;;18.45;89.34
77452;BME280;66537;52.370;4.832;2023-06-19T05:59:48;101056.44;;;18.51;90.66
77452;BME280;66537;52.370;4.832;2023-06-19T06:02:14;101061.88;;;18.32;90.79
77452;BME280;66537;52.370;4.832;2023-06-19T06:04:40;101065.41;;;18.47;89.90
77452;BME280;66537;52.370;4.832;2023-06-19T06:07:06;101070.31;;;18.53;90.01
77452;BME280;66537;52.370;4.832;2023-06-19T06:09:31;101066.88;;;18.52;88.67
77452;BME280;66537;52.370;4.832;2023-06-19T06:11:58;101082.66;;;18.51;89.46
77452;BME280;66537;52.370;4.832;2023-06-19T06:14:23;101083.59;;;18.34;88.86
77452;BME280;66537;52.370;4.832;2023-06-19T06:16:49;101085.88;;;18.40;90.10
77452;BME280;66537;52.370;4.832;2023-06-19T06:19:14;101086.13;;;18.36;89.71
77452;BME280;66537;52.370;4.832;2023-06-19T06:21:39;101098.03;;;18.41;90.15
77452;BME280;66537;52.370;4.832;2023-06-19T06:24:06;101096.03;;;18.46;89.65
77452;BME280;66537;52.370;4.832;2023-06-19T06:26:31;101101.84;;;18.36;86.98
77452;BME280;66537;52.370;4.832;2023-06-19T06:28:56;101101.06;;;18.34;87.62
77452;BME280;66537;52.370;4.832;2023-06-19T06:31:22;101119.28;;;18.21;86.81
77452;BME280;66537;52.370;4.832;2023-06-19T06:33:48;101121.13;;;18.03;86.64
77452;BME280;66537;52.370;4.832;2023-06-19T06:36:17;101124.59;;;17.88;87.78
77452;BME280;66537;52.370;4.832;2023-06-19T06:38:43;101129.47;;;17.94;87.00
77452;BME280;66537;52.370;4.832;2023-06-19T06:41:08;101133.19;;;17.75;87.46
77452;BME280;66537;52.370;4.832;2023-06-19T06:43:34;101136.88;;;17.71;87.96
77452;BME280;66537;52.370;4.832;2023-06-19T06:45:59;101144.47;;;17.75;88.39
77452;BME280;66537;52.370;4.832;2023-06-19T06:48:25;101132.72;;;17.67;87.75
77452;BME280;66537;52.370;4.832;2023-06-19T06:50:51;101140.31;;;17.71;87.07
77452;BME280;66537;52.370;4.832;2023-06-19T06:53:24;101138.59;;;17.87;86.49
77452;BME280;66537;52.370;4.832;2023-06-19T06:55:50;101139.09;;;17.94;87.23
77452;BME280;66537;52.370;4.832;2023-06-19T06:58:15;101142.22;;;18.00;85.83
77452;BME280;66537;52.370;4.832;2023-06-19T07:00:42;101139.28;;;18.07;85.57
77452;BME280;66537;52.370;4.832;2023-06-19T07:03:08;101153.88;;;18.11;85.14
77452;BME280;66537;52.370;4.832;2023-06-19T07:05:33;101149.91;;;18.03;85.59
77452;BME280;66537;52.370;4.832;2023-06-19T07:07:59;101151.16;;;17.96;86.21
77452;BME280;66537;52.370;4.832;2023-06-19T07:10:24;101158.59;;;17.88;86.41
77452;BME280;66537;52.370;4.832;2023-06-19T07:12:49;101170.06;;;17.86;85.87
77452;BME280;66537;52.370;4.832;2023-06-19T07:15:16;101166.47;;;17.88;86.74
77452;BME280;66537;52.370;4.832;2023-06-19T07:17:42;101186.81;;;17.99;85.39
77452;BME280;66537;52.370;4.832;2023-06-19T07:20:08;101178.44;;;18.08;84.50
77452;BME280;66537;52.370;4.832;2023-06-19T07:22:33;101183.69;;;18.08;84.41
77452;BME280;66537;52.370;4.832;2023-06-19T07:24:59;101197.19;;;18.00;84.16
77452;BME280;66537;52.370;4.832;2023-06-19T07:27:24;101178.88;;;18.16;82.89
77452;BME280;66537;52.370;4.832;2023-06-19T07:29:52;101189.16;;;18.52;80.95
77452;BME280;66537;52.370;4.832;2023-06-19T07:32:18;101193.19;;;18.73;79.75
77452;BME280;66537;52.370;4.832;2023-06-19T07:34:43;101202.69;;;18.89;79.31
77452;BME280;66537;52.370;4.832;2023-06-19T07:37:09;101199.25;;;18.89;79.70
77452;BME280;66537;52.370;4.832;2023-06-19T07:39:34;101204.50;;;18.89;79.81
77452;BME280;66537;52.370;4.832;2023-06-19T07:41:59;101202.25;;;18.97;79.30
77452;BME280;66537;52.370;4.832;2023-06-19T07:44:25;101201.13;;;19.17;78.96
77452;BME280;66537;52.370;4.832;2023-06-19T07:46:50;101198.22;;;19.21;77.31
77452;BME280;66537;52.370;4.832;2023-06-19T07:49:15;101207.13;;;19.19;76.68
77452;BME280;66537;52.370;4.832;2023-06-19T07:51:41;101215.91;;;18.88;78.44
77452;BME280;66537;52.370;4.832;2023-06-19T07:54:06;101216.66;;;18.90;79.64
77452;BME280;66537;52.370;4.832;2023-06-19T07:56:32;101219.88;;;19.25;78.05
77452;BME280;66537;52.370;4.832;2023-06-19T07:58:58;101221.78;;;19.07;77.80
77452;BME280;66537;52.370;4.832;2023-06-19T08:01:24;101209.38;;;19.25;78.66
77452;BME280;66537;52.370;4.832;2023-06-19T08:03:50;101218.09;;;19.25;78.47
77452;BME280;66537;52.370;4.832;2023-06-19T08:06:15;101223.00;;;19.31;78.29
77452;BME280;66537;52.370;4.832;2023-06-19T08:08:41;101226.13;;;19.08;78.46
77452;BME280;66537;52.370;4.832;2023-06-19T08:11:06;101229.53;;;18.95;78.76
77452;BME280;66537;52.370;4.832;2023-06-19T08:13:31;101235.69;;;18.93;79.23
77452;BME280;66537;52.370;4.832;2023-06-19T08:15:57;101233.78;;;19.11;77.64
77452;BME280;66537;52.370;4.832;2023-06-19T08:18:22;101230.00;;;19.01;77.53
77452;BME280;66537;52.370;4.832;2023-06-19T08:20:47;101231.63;;;18.88;77.66
77452;BME280;66537;52.370;4.832;2023-06-19T08:23:13;101238.94;;;18.83;77.67
77452;BME280;66537;52.370;4.832;2023-06-19T08:25:38;101230.38;;;18.79;77.67
77452;BME280;66537;52.370;4.832;2023-06-19T08:28:03;101251.75;;;18.72;77.01
77452;BME280;66537;52.370;4.832;2023-06-19T08:30:30;101241.25;;;19.03;76.58
77452;BME280;66537;52.370;4.832;2023-06-19T08:32:55;101240.34;;;18.88;75.65
77452;BME280;66537;52.370;4.832;2023-06-19T08:35:20;101248.69;;;18.95;77.12
77452;BME280;66537;52.370;4.832;2023-06-19T08:37:46;101255.06;;;18.91;75.83
77452;BME280;66537;52.370;4.832;2023-06-19T08:40:12;101265.94;;;19.15;75.87
77452;BME280;66537;52.370;4.832;2023-06-19T08:42:37;101258.47;;;19.38;74.58
77452;BME280;66537;52.370;4.832;2023-06-19T08:45:05;101265.56;;;19.36;75.29
77452;BME280;66537;52.370;4.832;2023-06-19T08:47:32;101270.38;;;19.28;75.95
77452;BME280;66537;52.370;4.832;2023-06-19T08:49:59;101273.53;;;19.35;75.96
77452;BME280;66537;52.370;4.832;2023-06-19T08:52:24;101282.28;;;19.04;76.70
77452;BME280;66537;52.370;4.832;2023-06-19T08:54:49;101296.72;;;19.27;75.86
77452;BME280;66537;52.370;4.832;2023-06-19T08:57:15;101308.81;;;19.45;74.76
77452;BME280;66537;52.370;4.832;2023-06-19T08:59:48;101301.75;;;19.45;74.56
77452;BME280;66537;52.370;4.832;2023-06-19T09:02:14;101304.53;;;19.58;73.81
77452;BME280;66537;52.370;4.832;2023-06-19T09:04:39;101305.06;;;19.49;74.73
77452;BME280;66537;52.370;4.832;2023-06-19T09:07:07;101307.97;;;19.29;74.77
77452;BME280;66537;52.370;4.832;2023-06-19T09:09:33;101305.88;;;19.35;74.25
77452;BME280;66537;52.370;4.832;2023-06-19T09:12:01;101311.91;;;19.51;74.53
77452;BME280;66537;52.370;4.832;2023-06-19T09:16:59;101303.91;;;19.23;75.95
77452;BME280;66537;52.370;4.832;2023-06-19T09:19:24;101303.31;;;19.34;75.29
77452;BME280;66537;52.370;4.832;2023-06-19T09:21:50;101299.44;;;19.41;74.75
77452;BME280;66537;52.370;4.832;2023-06-19T09:24:15;101299.53;;;19.24;75.19
77452;BME280;66537;52.370;4.832;2023-06-19T09:26:40;101306.84;;;19.48;74.14
77452;BME280;66537;52.370;4.832;2023-06-19T09:29:15;101316.78;;;19.87;72.44
77452;BME280;66537;52.370;4.832;2023-06-19T09:31:42;101317.41;;;20.34;69.99
77452;BME280;66537;52.370;4.832;2023-06-19T09:34:07;101321.56;;;20.93;68.40
77452;BME280;66537;52.370;4.832;2023-06-19T09:36:34;101311.50;;;21.53;65.38
77452;BME280;66537;52.370;4.832;2023-06-19T09:39:02;101323.94;;;20.84;68.27
77452;BME280;66537;52.370;4.832;2023-06-19T09:41:29;101329.00;;;21.01;67.61
77452;BME280;66537;52.370;4.832;2023-06-19T09:43:55;101327.06;;;20.76;68.42
77452;BME280;66537;52.370;4.832;2023-06-19T09:46:27;101325.03;;;20.94;66.89
77452;BME280;66537;52.370;4.832;2023-06-19T09:48:59;101321.09;;;20.87;67.16
77452;BME280;66537;52.370;4.832;2023-06-19T09:51:39;101328.34;;;20.83;68.07
77452;BME280;66537;52.370;4.832;2023-06-19T09:54:06;101328.16;;;21.27;66.81
77452;BME280;66537;52.370;4.832;2023-06-19T09:56:33;101344.06;;;21.65;65.11
77452;BME280;66537;52.370;4.832;2023-06-19T09:58:59;101351.53;;;21.05;66.29
77452;BME280;66537;52.370;4.832;2023-06-19T10:01:27;101348.06;;;20.90;67.75
77452;BME280;66537;52.370;4.832;2023-06-19T10:04:04;101347.31;;;21.02;67.51
77452;BME280;66537;52.370;4.832;2023-06-19T10:06:30;101347.41;;;21.54;66.83
77452;BME280;66537;52.370;4.832;2023-06-19T10:09:05;101351.53;;;22.10;65.55
77452;BME280;66537;52.370;4.832;2023-06-19T10:11:47;101354.41;;;21.00;64.34
77452;BME280;66537;52.370;4.832;2023-06-19T10:14:13;101356.25;;;22.05;63.45
77452;BME280;66537;52.370;4.832;2023-06-19T10:16:40;101355.63;;;22.26;61.67
77452;BME280;66537;52.370;4.832;2023-06-19T10:19:17;101359.50;;;23.20;60.67
77452;BME280;66537;52.370;4.832;2023-06-19T10:21:45;101356.25;;;22.55;61.38
77452;BME280;66537;52.370;4.832;2023-06-19T10:24:15;101354.50;;;22.43;61.29
77452;BME280;66537;52.370;4.832;2023-06-19T10:26:43;101358.94;;;23.40;60.41
77452;BME280;66537;52.370;4.832;2023-06-19T10:29:16;101357.00;;;22.70;60.79
77452;BME280;66537;52.370;4.832;2023-06-19T10:31:42;101363.13;;;22.07;64.04
77452;BME280;66537;52.370;4.832;2023-06-19T10:34:09;101359.66;;;22.57;62.46
77452;BME280;66537;52.370;4.832;2023-06-19T10:36:34;101360.78;;;21.90;63.22
77452;BME280;66537;52.370;4.832;2023-06-19T10:39:00;101356.06;;;22.08;62.97
77452;BME280;66537;52.370;4.832;2023-06-19T10:41:25;101362.19;;;22.33;62.68
77452;BME280;66537;52.370;4.832;2023-06-19T10:46:30;101361.72;;;23.13;61.86
77452;BME280;66537;52.370;4.832;2023-06-19T10:48:56;101364.22;;;23.40;59.17
77452;BME280;66537;52.370;4.832;2023-06-19T10:51:29;101366.63;;;23.43;60.09
77452;BME280;66537;52.370;4.832;2023-06-19T10:53:56;101350.13;;;23.98;58.67
77452;BME280;66537;52.370;4.832;2023-06-19T10:56:22;101352.97;;;23.49;59.03
77452;BME280;66537;52.370;4.832;2023-06-19T10:58:48;101357.34;;;23.38;58.94
77452;BME280;66537;52.370;4.832;2023-06-19T11:01:14;101358.44;;;24.04;58.82
77452;BME280;66537;52.370;4.832;2023-06-19T11:03:39;101353.91;;;24.29;58.55
77452;BME280;66537;52.370;4.832;2023-06-19T11:06:05;101352.00;;;24.31;56.68
77452;BME280;66537;52.370;4.832;2023-06-19T11:08:30;101352.22;;;24.61;57.28
77452;BME280;66537;52.370;4.832;2023-06-19T11:10:55;101345.03;;;24.74;56.39
77452;BME280;66537;52.370;4.832;2023-06-19T11:13:21;101348.63;;;24.17;56.76
77452;BME280;66537;52.370;4.832;2023-06-19T11:15:48;101349.25;;;24.76;57.32
77452;BME280;66537;52.370;4.832;2023-06-19T11:18:17;101348.16;;;24.79;56.23
77452;BME280;66537;52.370;4.832;2023-06-19T11:20:52;101349.72;;;25.35;55.46
77452;BME280;66537;52.370;4.832;2023-06-19T11:23:29;101346.34;;;25.44;54.47
77452;BME280;66537;52.370;4.832;2023-06-19T11:26:02;101344.97;;;25.07;55.00
77452;BME280;66537;52.370;4.832;2023-06-19T11:28:27;101351.91;;;25.41;55.19
77452;BME280;66537;52.370;4.832;2023-06-19T11:30:59;101349.34;;;25.71;53.74
77452;BME280;66537;52.370;4.832;2023-06-19T11:33:25;101339.97;;;25.36;54.56
77452;BME280;66537;52.370;4.832;2023-06-19T11:35:52;101350.66;;;25.34;53.82
77452;BME280;66537;52.370;4.832;2023-06-19T11:38:22;101344.19;;;25.27;53.37
77452;BME280;66537;52.370;4.832;2023-06-19T11:40:48;101337.81;;;25.41;53.07
77452;BME280;66537;52.370;4.832;2023-06-19T11:43:24;101338.09;;;25.16;53.14
77452;BME280;66537;52.370;4.832;2023-06-19T11:45:50;101346.72;;;24.75;54.38
77452;BME280;66537;52.370;4.832;2023-06-19T11:48:26;101341.09;;;24.79;54.67
77452;BME280;66537;52.370;4.832;2023-06-19T11:50:52;101336.94;;;25.09;54.10
77452;BME280;66537;52.370;4.832;2023-06-19T11:53:22;101343.72;;;24.79;53.72
77452;BME280;66537;52.370;4.832;2023-06-19T11:55:49;101350.91;;;24.88;53.96
77452;BME280;66537;52.370;4.832;2023-06-19T11:58:14;101346.22;;;24.92;54.05
77452;BME280;66537;52.370;4.832;2023-06-19T12:00:44;101351.41;;;24.71;53.43
77452;BME280;66537;52.370;4.832;2023-06-19T12:03:10;101346.22;;;24.92;53.03
77452;BME280;66537;52.370;4.832;2023-06-19T12:05:36;101358.38;;;24.72;52.14
77452;BME280;66537;52.370;4.832;2023-06-19T12:08:02;101359.56;;;24.35;52.83
77452;BME280;66537;52.370;4.832;2023-06-19T12:10:31;101359.53;;;24.02;54.03
77452;BME280;66537;52.370;4.832;2023-06-19T12:12:57;101365.47;;;24.39;53.14
77452;BME280;66537;52.370;4.832;2023-06-19T12:15:22;101368.34;;;24.69;51.71
77452;BME280;66537;52.370;4.832;2023-06-19T12:17:48;101362.59;;;24.75;51.75
77452;BME280;66537;52.370;4.832;2023-06-19T12:20:13;101368.59;;;24.66;51.96
77452;BME280;66537;52.370;4.832;2023-06-19T12:22:40;101376.91;;;24.72;52.17
77452;BME280;66537;52.370;4.832;2023-06-19T12:25:05;101364.00;;;25.12;51.99
77452;BME280;66537;52.370;4.832;2023-06-19T12:27:31;101376.06;;;24.72;52.32
77452;BME280;66537;52.370;4.832;2023-06-19T12:29:56;101369.28;;;25.01;51.18
77452;BME280;66537;52.370;4.832;2023-06-19T12:32:22;101371.41;;;24.75;52.51
77452;BME280;66537;52.370;4.832;2023-06-19T12:34:47;101373.50;;;24.70;51.86
77452;BME280;66537;52.370;4.832;2023-06-19T12:37:16;101370.41;;;24.98;50.90
77452;BME280;66537;52.370;4.832;2023-06-19T12:39:43;101373.16;;;25.08;50.44
77452;BME280;66537;52.370;4.832;2023-06-19T12:42:09;101373.06;;;24.76;50.45
77452;BME280;66537;52.370;4.832;2023-06-19T12:44:37;101383.72;;;24.20;52.11
77452;BME280;66537;52.370;4.832;2023-06-19T12:47:02;101369.31;;;24.57;52.13
77452;BME280;66537;52.370;4.832;2023-06-19T12:49:30;101377.13;;;24.69;51.79
77452;BME280;66537;52.370;4.832;2023-06-19T12:51:55;101384.19;;;24.36;52.43